sensor_id;sensor_type;location;lat;lon;timestamp;temperature;humidity
66710;DHT22;53624;0.000;0.000;2023-04-19T00:01:13;16.20;99.90
66710;DHT22;53624;0.000;0.000;2023-04-19T00:03:40;16.20;99.90
66710;DHT22;53624;0.000;0.000;2023-04-19T00:06:08;16.20;99.90
66710;DHT22;53624;0.000;0.000;2023-04-19T00:08:35;16.10;99.90
66710;DHT22;53624;0.000;0.000;2023-04-19T00:11:03;16.10;99.90
66710;DHT22;53624;0.000;0.000;2023-04-19T00:13:30;16.10;99.90
66710;DHT22;53624;0.000;0.000;2023-04-19T00:15:58;16.10;99.90
66710;DHT22;53624;0.000;0.000;2023-04-19T00:18:27;16.10;99.90
66710;DHT22;53624;0.000;0.000;2023-04-19T00:20:54;16.10;99.90
66710;DHT22;53624;0.000;0.000;2023-04-19T00:23:22;16.10;99.90
66710;DHT22;53624;0.000;0.000;2023-04-19T00:25:51;16.00;99.90
66710;DHT22;53624;0.000;0.000;2023-04-19T00:28:18;16.00;99.90
66710;DHT22;53624;0.000;0.000;2023-04-19T00:30:45;16.00;99.90
66710;DHT22;53624;0.000;0.000;2023-04-19T00:33:13;16.00;99.90
66710;DHT22;53624;0.000;0.000;2023-04-19T00:35:42;16.00;99.90
66710;DHT22;53624;0.000;0.000;2023-04-19T00:38:12;16.00;99.90
66710;DHT22;53624;0.000;0.000;2023-04-19T00:40:39;15.90;99.90
66710;DHT22;53624;0.000;0.000;2023-04-19T00:43:07;15.90;99.90
66710;DHT22;53624;0.000;0.000;2023-04-19T00:45:34;15.90;99.90
66710;DHT22;53624;0.000;0.000;2023-04-19T00:48:02;15.90;99.90
66710;DHT22;53624;0.000;0.000;2023-04-19T00:50:30;15.90;99.90
66710;DHT22;53624;0.000;0.000;2023-04-19T00:52:58;15.90;99.90
66710;DHT22;53624;0.000;0.000;2023-04-19T00:55:26;15.80;99.90
66710;DHT22;53624;0.000;0.000;2023-04-19T00:57:53;15.80;99.90
66710;DHT22;53624;0.000;0.000;2023-04-19T01:00:21;15.80;99.90
66710;DHT22;53624;0.000;0.000;2023-04-19T01:02:50;15.80;99.90
66710;DHT22;53624;0.000;0.000;2023-04-19T01:05:18;15.80;99.90
66710;DHT22;53624;0.000;0.000;2023-04-19T01:07:46;15.80;99.90
66710;DHT22;53624;0.000;0.000;2023-04-19T01:10:15;15.70;99.90
66710;DHT22;53624;0.000;0.000;2023-04-19T01:12:42;15.70;99.90
66710;DHT22;53624;0.000;0.000;2023-04-19T01:15:10;15.70;99.90
66710;DHT22;53624;0.000;0.000;2023-04-19T01:17:38;15.70;99.90
66710;DHT22;53624;0.000;0.000;2023-04-19T01:20:06;15.70;99.90
66710;DHT22;53624;0.000;0.000;2023-04-19T01:22:35;15.70;99.90
66710;DHT22;53624;0.000;0.000;2023-04-19T01:25:04;15.60;99.90
66710;DHT22;53624;0.000;0.000;2023-04-19T01:27:32;15.60;99.90
66710;DHT22;53624;0.000;0.000;2023-04-19T01:29:59;15.60;99.90
66710;DHT22;53624;0.000;0.000;2023-04-19T01:32:27;15.60;99.90
66710;DHT22;53624;0.000;0.000;2023-04-19T01:34:55;15.60;99.90
66710;DHT22;53624;0.000;0.000;2023-04-19T01:37:23;15.60;99.90
66710;DHT22;53624;0.000;0.000;2023-04-19T01:39:51;15.60;99.90
66710;DHT22;53624;0.000;0.000;2023-04-19T01:42:19;15.60;99.90
66710;DHT22;53624;0.000;0.000;2023-04-19T01:44:46;15.60;99.90
66710;DHT22;53624;0.000;0.000;2023-04-19T01:47:14;15.50;99.90
66710;DHT22;53624;0.000;0.000;2023-04-19T01:49:41;15.50;99.90
66710;DHT22;53624;0.000;0.000;2023-04-19T01:52:09;15.50;99.90
66710;DHT22;53624;0.000;0.000;2023-04-19T01:54:36;15.50;99.90
66710;DHT22;53624;0.000;0.000;2023-04-19T01:57:05;15.50;99.90
66710;DHT22;53624;0.000;0.000;2023-04-19T01:59:32;15.50;99.90
66710;DHT22;53624;0.000;0.000;2023-04-19T02:02:00;15.40;99.90
66710;DHT22;53624;0.000;0.000;2023-04-19T02:04:27;15.40;99.90
66710;DHT22;53624;0.000;0.000;2023-04-19T02:06:55;15.40;99.90
66710;DHT22;53624;0.000;0.000;2023-04-19T02:09:22;15.40;99.90
66710;DHT22;53624;0.000;0.000;2023-04-19T02:11:50;15.40;99.90
66710;DHT22;53624;0.000;0.000;2023-04-19T02:14:19;15.40;99.90
66710;DHT22;53624;0.000;0.000;2023-04-19T02:16:47;15.40;99.90
66710;DHT22;53624;0.000;0.000;2023-04-19T02:19:14;15.40;99.90
66710;DHT22;53624;0.000;0.000;2023-04-19T02:21:43;15.30;99.90
66710;DHT22;53624;0.000;0.000;2023-04-19T02:24:13;15.30;99.90
66710;DHT22;53624;0.000;0.000;2023-04-19T02:26:41;15.30;99.90
66710;DHT22;53624;0.000;0.000;2023-04-19T02:29:09;15.30;99.90
66710;DHT22;53624;0.000;0.000;2023-04-19T02:31:39;15.30;99.90
66710;DHT22;53624;0.000;0.000;2023-04-19T02:34:08;15.30;99.90
66710;DHT22;53624;0.000;0.000;2023-04-19T02:36:36;15.20;99.90
66710;DHT22;53624;0.000;0.000;2023-04-19T02:39:03;15.30;99.90
66710;DHT22;53624;0.000;0.000;2023-04-19T02:41:31;15.30;99.90
66710;DHT22;53624;0.000;0.000;2023-04-19T02:44:01;15.20;99.90
66710;DHT22;53624;0.000;0.000;2023-04-19T02:46:28;15.20;99.90
66710;DHT22;53624;0.000;0.000;2023-04-19T02:48:57;15.20;99.90
66710;DHT22;53624;0.000;0.000;2023-04-19T02:51:26;15.20;99.90
66710;DHT22;53624;0.000;0.000;2023-04-19T02:53:54;15.20;99.90
66710;DHT22;53624;0.000;0.000;2023-04-19T02:56:22;15.20;99.90
66710;DHT22;53624;0.000;0.000;2023-04-19T02:58:51;15.10;99.90
66710;DHT22;53624;0.000;0.000;2023-04-19T03:01:19;15.10;99.90
66710;DHT22;53624;0.000;0.000;2023-04-19T03:03:46;15.10;99.90
66710;DHT22;53624;0.000;0.000;2023-04-19T03:06:15;15.10;99.90
66710;DHT22;53624;0.000;0.000;2023-04-19T03:08:43;15.10;99.90
66710;DHT22;53624;0.000;0.000;2023-04-19T03:11:10;15.10;99.90
66710;DHT22;53624;0.000;0.000;2023-04-19T03:13:38;15.10;99.90
66710;DHT22;53624;0.000;0.000;2023-04-19T03:16:06;15.10;99.90
66710;DHT22;53624;0.000;0.000;2023-04-19T03:18:33;15.00;99.90
66710;DHT22;53624;0.000;0.000;2023-04-19T03:21:03;15.00;99.90
66710;DHT22;53624;0.000;0.000;2023-04-19T03:23:39;15.00;99.90
66710;DHT22;53624;0.000;0.000;2023-04-19T03:26:08;15.00;99.90
66710;DHT22;53624;0.000;0.000;2023-04-19T03:28:46;15.00;99.90
66710;DHT22;53624;0.000;0.000;2023-04-19T03:31:32;15.00;99.90
66710;DHT22;53624;0.000;0.000;2023-04-19T03:33:59;15.00;99.90
66710;DHT22;53624;0.000;0.000;2023-04-19T03:36:33;15.00;99.90
66710;DHT22;53624;0.000;0.000;2023-04-19T03:39:03;15.00;99.90
66710;DHT22;53624;0.000;0.000;2023-04-19T03:41:31;15.00;99.90
66710;DHT22;53624;0.000;0.000;2023-04-19T03:44:15;14.90;99.90
66710;DHT22;53624;0.000;0.000;2023-04-19T03:46:44;14.90;99.90
66710;DHT22;53624;0.000;0.000;2023-04-19T03:49:15;14.90;99.90
66710;DHT22;53624;0.000;0.000;2023-04-19T03:51:46;14.90;99.90
66710;DHT22;53624;0.000;0.000;2023-04-19T03:54:15;14.90;99.90
66710;DHT22;53624;0.000;0.000;2023-04-19T03:56:43;14.90;99.90
66710;DHT22;53624;0.000;0.000;2023-04-19T03:59:11;14.90;99.90
66710;DHT22;53624;0.000;0.000;2023-04-19T04:01:39;14.90;99.90
66710;DHT22;53624;0.000;0.000;2023-04-19T04:04:07;14.90;99.90
66710;DHT22;53624;0.000;0.000;2023-04-19T04:06:35;14.90;99.90
66710;DHT22;53624;0.000;0.000;2023-04-19T04:09:02;14.80;99.90
66710;DHT22;53624;0.000;0.000;2023-04-19T04:11:31;14.80;99.90
66710;DHT22;53624;0.000;0.000;2023-04-19T04:13:59;14.80;99.90
66710;DHT22;53624;0.000;0.000;2023-04-19T04:16:30;14.80;99.90
66710;DHT22;53624;0.000;0.000;2023-04-19T04:18:57;14.80;99.90
66710;DHT22;53624;0.000;0.000;2023-04-19T04:21:27;14.80;99.90
66710;DHT22;53624;0.000;0.000;2023-04-19T04:23:58;14.80;99.90
66710;DHT22;53624;0.000;0.000;2023-04-19T04:26:38;14.80;99.90
66710;DHT22;53624;0.000;0.000;2023-04-19T04:29:16;14.80;99.90
66710;DHT22;53624;0.000;0.000;2023-04-19T04:31:44;14.80;99.90
66710;DHT22;53624;0.000;0.000;2023-04-19T04:34:14;14.80;99.90
66710;DHT22;53624;0.000;0.000;2023-04-19T04:36:49;14.80;99.90
66710;DHT22;53624;0.000;0.000;2023-04-19T04:39:18;14.80;99.90
66710;DHT22;53624;0.000;0.000;2023-04-19T04:41:48;14.80;99.90
66710;DHT22;53624;0.000;0.000;2023-04-19T04:44:16;14.80;99.90
66710;DHT22;53624;0.000;0.000;2023-04-19T04:46:45;14.70;99.90
66710;DHT22;53624;0.000;0.000;2023-04-19T04:49:18;14.70;99.90
66710;DHT22;53624;0.000;0.000;2023-04-19T04:51:46;14.70;99.90
66710;DHT22;53624;0.000;0.000;2023-04-19T04:54:13;14.70;99.90
66710;DHT22;53624;0.000;0.000;2023-04-19T04:56:41;14.70;99.90
66710;DHT22;53624;0.000;0.000;2023-04-19T04:59:10;14.70;99.90
66710;DHT22;53624;0.000;0.000;2023-04-19T05:01:41;14.70;99.90
66710;DHT22;53624;0.000;0.000;2023-04-19T05:04:10;14.70;99.90
66710;DHT22;53624;0.000;0.000;2023-04-19T05:06:38;14.70;99.90
66710;DHT22;53624;0.000;0.000;2023-04-19T05:09:07;14.70;99.90
66710;DHT22;53624;0.000;0.000;2023-04-19T05:11:35;14.70;99.90
66710;DHT22;53624;0.000;0.000;2023-04-19T05:14:04;14.70;99.90
66710;DHT22;53624;0.000;0.000;2023-04-19T05:16:33;14.70;99.90
66710;DHT22;53624;0.000;0.000;2023-04-19T05:19:02;14.70;99.90
66710;DHT22;53624;0.000;0.000;2023-04-19T05:21:34;14.70;99.90
66710;DHT22;53624;0.000;0.000;2023-04-19T05:24:04;14.70;99.90
66710;DHT22;53624;0.000;0.000;2023-04-19T05:26:33;14.70;99.90
66710;DHT22;53624;0.000;0.000;2023-04-19T05:29:02;14.70;99.90
66710;DHT22;53624;0.000;0.000;2023-04-19T05:31:49;14.70;99.90
66710;DHT22;53624;0.000;0.000;2023-04-19T05:34:23;14.70;99.90
66710;DHT22;53624;0.000;0.000;2023-04-19T05:36:52;14.70;99.90
66710;DHT22;53624;0.000;0.000;2023-04-19T05:39:20;14.70;99.90
66710;DHT22;53624;0.000;0.000;2023-04-19T05:41:48;14.70;99.90
66710;DHT22;53624;0.000;0.000;2023-04-19T05:44:15;14.70;99.90
66710;DHT22;53624;0.000;0.000;2023-04-19T05:46:43;14.70;99.90
66710;DHT22;53624;0.000;0.000;2023-04-19T05:49:14;14.70;99.90
66710;DHT22;53624;0.000;0.000;2023-04-19T05:51:59;14.70;99.90
66710;DHT22;53624;0.000;0.000;2023-04-19T05:54:44;14.80;99.90
66710;DHT22;53624;0.000;0.000;2023-04-19T05:57:12;14.70;99.90
66710;DHT22;53624;0.000;0.000;2023-04-19T05:59:40;14.80;99.90
66710;DHT22;53624;0.000;0.000;2023-04-19T06:02:08;14.70;99.90
66710;DHT22;53624;0.000;0.000;2023-04-19T06:04:37;14.80;99.90
66710;DHT22;53624;0.000;0.000;2023-04-19T06:07:05;14.80;99.90
66710;DHT22;53624;0.000;0.000;2023-04-19T06:09:33;14.80;99.90
66710;DHT22;53624;0.000;0.000;2023-04-19T06:12:00;14.80;99.90
66710;DHT22;53624;0.000;0.000;2023-04-19T06:14:28;14.80;99.90
66710;DHT22;53624;0.000;0.000;2023-04-19T06:16:56;14.80;99.90
66710;DHT22;53624;0.000;0.000;2023-04-19T06:19:24;14.80;99.90
66710;DHT22;53624;0.000;0.000;2023-04-19T06:21:53;14.90;99.80
66710;DHT22;53624;0.000;0.000;2023-04-19T06:24:21;15.00;99.60
66710;DHT22;53624;0.000;0.000;2023-04-19T06:26:48;15.10;99.40
66710;DHT22;53624;0.000;0.000;2023-04-19T06:29:16;15.20;99.20
66710;DHT22;53624;0.000;0.000;2023-04-19T06:31:45;15.40;99.00
66710;DHT22;53624;0.000;0.000;2023-04-19T06:34:12;15.50;98.80
66710;DHT22;53624;0.000;0.000;2023-04-19T06:36:40;15.60;98.50
66710;DHT22;53624;0.000;0.000;2023-04-19T06:39:09;15.80;98.30
66710;DHT22;53624;0.000;0.000;2023-04-19T06:41:36;16.00;97.90
66710;DHT22;53624;0.000;0.000;2023-04-19T06:44:05;16.10;97.70
66710;DHT22;53624;0.000;0.000;2023-04-19T06:46:32;16.20;97.40
66710;DHT22;53624;0.000;0.000;2023-04-19T06:48:59;16.30;97.20
66710;DHT22;53624;0.000;0.000;2023-04-19T06:51:27;16.30;97.20
66710;DHT22;53624;0.000;0.000;2023-04-19T06:53:55;16.40;97.00
66710;DHT22;53624;0.000;0.000;2023-04-19T06:59:18;16.70;96.50
66710;DHT22;53624;0.000;0.000;2023-04-19T07:01:46;17.00;96.00
66710;DHT22;53624;0.000;0.000;2023-04-19T07:04:14;17.30;95.50
66710;DHT22;53624;0.000;0.000;2023-04-19T07:06:42;17.50;95.10
66710;DHT22;53624;0.000;0.000;2023-04-19T07:09:09;17.60;95.00
66710;DHT22;53624;0.000;0.000;2023-04-19T07:11:36;17.50;95.20
66710;DHT22;53624;0.000;0.000;2023-04-19T07:14:04;17.50;95.00
66710;DHT22;53624;0.000;0.000;2023-04-19T07:16:33;17.50;95.00
66710;DHT22;53624;0.000;0.000;2023-04-19T07:19:00;17.40;95.50
66710;DHT22;53624;0.000;0.000;2023-04-19T07:21:28;17.50;95.50
66710;DHT22;53624;0.000;0.000;2023-04-19T07:23:58;17.50;95.60
66710;DHT22;53624;0.000;0.000;2023-04-19T07:26:25;17.90;95.10
66710;DHT22;53624;0.000;0.000;2023-04-19T07:28:53;18.10;94.60
66710;DHT22;53624;0.000;0.000;2023-04-19T07:31:20;18.20;94.90
66710;DHT22;53624;0.000;0.000;2023-04-19T07:33:53;18.30;94.50
66710;DHT22;53624;0.000;0.000;2023-04-19T07:36:20;18.60;94.10
66710;DHT22;53624;0.000;0.000;2023-04-19T07:38:47;19.00;93.80
66710;DHT22;53624;0.000;0.000;2023-04-19T07:41:15;19.40;93.40
66710;DHT22;53624;0.000;0.000;2023-04-19T07:43:43;19.80;92.70
66710;DHT22;53624;0.000;0.000;2023-04-19T07:46:10;20.40;92.00
66710;DHT22;53624;0.000;0.000;2023-04-19T07:48:38;20.70;91.30
66710;DHT22;53624;0.000;0.000;2023-04-19T07:51:11;21.20;90.70
66710;DHT22;53624;0.000;0.000;2023-04-19T07:53:38;21.60;90.20
66710;DHT22;53624;0.000;0.000;2023-04-19T07:56:06;22.10;89.30
66710;DHT22;53624;0.000;0.000;2023-04-19T07:58:34;22.40;88.00
66710;DHT22;53624;0.000;0.000;2023-04-19T08:01:02;22.80;87.60
66710;DHT22;53624;0.000;0.000;2023-04-19T08:03:30;23.00;86.70
66710;DHT22;53624;0.000;0.000;2023-04-19T08:05:59;23.30;86.20
66710;DHT22;53624;0.000;0.000;2023-04-19T08:08:28;23.50;85.50
66710;DHT22;53624;0.000;0.000;2023-04-19T08:10:56;23.80;84.90
66710;DHT22;53624;0.000;0.000;2023-04-19T08:13:24;24.00;84.40
66710;DHT22;53624;0.000;0.000;2023-04-19T08:15:51;24.20;84.10
66710;DHT22;53624;0.000;0.000;2023-04-19T08:18:18;24.30;83.80
66710;DHT22;53624;0.000;0.000;2023-04-19T08:20:46;24.10;84.50
66710;DHT22;53624;0.000;0.000;2023-04-19T08:23:13;23.80;85.50
66710;DHT22;53624;0.000;0.000;2023-04-19T08:25:42;23.60;86.20
66710;DHT22;53624;0.000;0.000;2023-04-19T08:28:10;23.60;86.80
66710;DHT22;53624;0.000;0.000;2023-04-19T08:30:37;23.60;87.20
66710;DHT22;53624;0.000;0.000;2023-04-19T08:33:05;23.70;87.40
66710;DHT22;53624;0.000;0.000;2023-04-19T08:35:33;23.80;87.40
66710;DHT22;53624;0.000;0.000;2023-04-19T08:38:00;23.90;87.50
66710;DHT22;53624;0.000;0.000;2023-04-19T08:40:29;24.10;87.50
66710;DHT22;53624;0.000;0.000;2023-04-19T08:42:58;24.20;87.30
66710;DHT22;53624;0.000;0.000;2023-04-19T08:45:31;24.30;87.20
66710;DHT22;53624;0.000;0.000;2023-04-19T08:47:59;24.50;87.40
66710;DHT22;53624;0.000;0.000;2023-04-19T08:50:27;24.60;87.30
66710;DHT22;53624;0.000;0.000;2023-04-19T08:52:56;24.70;87.20
66710;DHT22;53624;0.000;0.000;2023-04-19T08:55:24;24.90;87.20
66710;DHT22;53624;0.000;0.000;2023-04-19T08:57:52;25.00;87.10
66710;DHT22;53624;0.000;0.000;2023-04-19T09:00:21;25.10;87.20
66710;DHT22;53624;0.000;0.000;2023-04-19T09:02:49;25.20;87.50
66710;DHT22;53624;0.000;0.000;2023-04-19T09:05:17;24.90;82.40
66710;DHT22;53624;0.000;0.000;2023-04-19T09:07:45;24.10;78.60
66710;DHT22;53624;0.000;0.000;2023-04-19T09:10:13;23.60;79.20
66710;DHT22;53624;0.000;0.000;2023-04-19T09:12:41;23.40;81.00
66710;DHT22;53624;0.000;0.000;2023-04-19T09:15:09;23.30;81.40
66710;DHT22;53624;0.000;0.000;2023-04-19T09:17:38;23.20;80.90
66710;DHT22;53624;0.000;0.000;2023-04-19T09:20:06;23.10;80.40
66710;DHT22;53624;0.000;0.000;2023-04-19T09:22:34;23.10;80.60
66710;DHT22;53624;0.000;0.000;2023-04-19T09:25:02;23.10;81.10
66710;DHT22;53624;0.000;0.000;2023-04-19T09:27:30;23.10;81.30
66710;DHT22;53624;0.000;0.000;2023-04-19T09:29:58;23.20;80.50
66710;DHT22;53624;0.000;0.000;2023-04-19T09:32:25;23.20;81.10
66710;DHT22;53624;0.000;0.000;2023-04-19T09:34:55;23.10;81.80
66710;DHT22;53624;0.000;0.000;2023-04-19T09:37:23;23.10;79.80
66710;DHT22;53624;0.000;0.000;2023-04-19T09:39:51;23.10;80.50
66710;DHT22;53624;0.000;0.000;2023-04-19T09:42:19;23.10;81.10
66710;DHT22;53624;0.000;0.000;2023-04-19T09:44:56;23.20;81.50
66710;DHT22;53624;0.000;0.000;2023-04-19T09:47:24;23.00;79.00
66710;DHT22;53624;0.000;0.000;2023-04-19T09:50:04;23.00;81.20
66710;DHT22;53624;0.000;0.000;2023-04-19T09:52:32;23.00;80.20
66710;DHT22;53624;0.000;0.000;2023-04-19T09:55:00;23.10;80.30
66710;DHT22;53624;0.000;0.000;2023-04-19T09:57:29;23.20;80.50
66710;DHT22;53624;0.000;0.000;2023-04-19T09:59:57;23.10;80.20
66710;DHT22;53624;0.000;0.000;2023-04-19T10:02:25;23.10;81.10
66710;DHT22;53624;0.000;0.000;2023-04-19T10:04:53;23.10;79.70
66710;DHT22;53624;0.000;0.000;2023-04-19T10:07:23;23.10;80.20
66710;DHT22;53624;0.000;0.000;2023-04-19T10:09:52;23.20;81.30
66710;DHT22;53624;0.000;0.000;2023-04-19T10:12:21;23.10;80.10
66710;DHT22;53624;0.000;0.000;2023-04-19T10:14:49;23.20;81.00
66710;DHT22;53624;0.000;0.000;2023-04-19T10:17:17;23.00;81.40
66710;DHT22;53624;0.000;0.000;2023-04-19T10:19:45;23.00;79.70
66710;DHT22;53624;0.000;0.000;2023-04-19T10:22:13;23.20;79.50
66710;DHT22;53624;0.000;0.000;2023-04-19T10:24:44;23.20;81.00
66710;DHT22;53624;0.000;0.000;2023-04-19T10:27:33;23.30;78.80
66710;DHT22;53624;0.000;0.000;2023-04-19T10:30:01;23.30;80.50
66710;DHT22;53624;0.000;0.000;2023-04-19T10:32:36;23.30;80.60
66710;DHT22;53624;0.000;0.000;2023-04-19T10:35:08;23.40;80.00
66710;DHT22;53624;0.000;0.000;2023-04-19T10:37:38;23.40;79.80
66710;DHT22;53624;0.000;0.000;2023-04-19T10:40:08;23.40;80.40
66710;DHT22;53624;0.000;0.000;2023-04-19T10:45:30;22.30;81.60
66710;DHT22;53624;0.000;0.000;2023-04-19T10:47:58;22.50;82.20
66710;DHT22;53624;0.000;0.000;2023-04-19T10:50:26;22.60;83.70
66710;DHT22;53624;0.000;0.000;2023-04-19T10:52:53;23.00;83.10
66710;DHT22;53624;0.000;0.000;2023-04-19T10:55:22;22.10;80.60
66710;DHT22;53624;0.000;0.000;2023-04-19T10:58:02;21.70;79.90
66710;DHT22;53624;0.000;0.000;2023-04-19T11:00:30;22.30;82.80
66710;DHT22;53624;0.000;0.000;2023-04-19T11:02:58;22.70;81.30
66710;DHT22;53624;0.000;0.000;2023-04-19T11:05:26;22.20;79.60
66710;DHT22;53624;0.000;0.000;2023-04-19T11:07:54;22.40;83.70
66710;DHT22;53624;0.000;0.000;2023-04-19T11:10:28;22.70;80.40
66710;DHT22;53624;0.000;0.000;2023-04-19T11:12:56;22.00;82.80
66710;DHT22;53624;0.000;0.000;2023-04-19T11:15:24;22.70;82.30
66710;DHT22;53624;0.000;0.000;2023-04-19T11:17:51;23.20;80.80
66710;DHT22;53624;0.000;0.000;2023-04-19T11:20:21;23.40;81.70
66710;DHT22;53624;0.000;0.000;2023-04-19T11:22:49;23.40;77.40
66710;DHT22;53624;0.000;0.000;2023-04-19T11:25:17;23.50;79.20
66710;DHT22;53624;0.000;0.000;2023-04-19T11:27:47;23.50;81.00
66710;DHT22;53624;0.000;0.000;2023-04-19T11:30:16;23.70;79.90
66710;DHT22;53624;0.000;0.000;2023-04-19T11:32:46;23.80;81.00
66710;DHT22;53624;0.000;0.000;2023-04-19T11:35:14;23.70;79.10
66710;DHT22;53624;0.000;0.000;2023-04-19T11:37:41;23.80;79.70
66710;DHT22;53624;0.000;0.000;2023-04-19T11:40:09;23.80;79.90
66710;DHT22;53624;0.000;0.000;2023-04-19T11:42:40;23.80;78.10
66710;DHT22;53624;0.000;0.000;2023-04-19T11:45:10;23.40;80.00
66710;DHT22;53624;0.000;0.000;2023-04-19T11:47:45;23.30;77.60
66710;DHT22;53624;0.000;0.000;2023-04-19T11:52:59;22.30;76.90
66710;DHT22;53624;0.000;0.000;2023-04-19T11:55:26;22.70;80.00
66710;DHT22;53624;0.000;0.000;2023-04-19T11:57:59;22.50;79.30
66710;DHT22;53624;0.000;0.000;2023-04-19T12:00:28;22.30;77.60
66710;DHT22;53624;0.000;0.000;2023-04-19T12:02:56;22.10;77.40
66710;DHT22;53624;0.000;0.000;2023-04-19T12:05:25;22.90;80.10
66710;DHT22;53624;0.000;0.000;2023-04-19T12:08:02;23.30;76.40
66710;DHT22;53624;0.000;0.000;2023-04-19T12:10:29;23.20;76.80
66710;DHT22;53624;0.000;0.000;2023-04-19T12:12:57;23.10;75.40
66710;DHT22;53624;0.000;0.000;2023-04-19T12:18:19;22.50;76.10
66710;DHT22;53624;0.000;0.000;2023-04-19T12:20:47;22.50;78.30
66710;DHT22;53624;0.000;0.000;2023-04-19T12:23:15;21.70;76.10
66710;DHT22;53624;0.000;0.000;2023-04-19T12:25:43;22.10;79.70
66710;DHT22;53624;0.000;0.000;2023-04-19T12:28:11;22.60;80.10
66710;DHT22;53624;0.000;0.000;2023-04-19T12:30:38;22.40;78.30
66710;DHT22;53624;0.000;0.000;2023-04-19T12:33:06;23.00;75.20
66710;DHT22;53624;0.000;0.000;2023-04-19T12:35:35;22.90;76.60
66710;DHT22;53624;0.000;0.000;2023-04-19T12:38:04;22.70;78.60
66710;DHT22;53624;0.000;0.000;2023-04-19T12:40:31;22.40;77.80
66710;DHT22;53624;0.000;0.000;2023-04-19T12:42:59;22.20;80.70
66710;DHT22;53624;0.000;0.000;2023-04-19T12:45:26;23.00;78.70
66710;DHT22;53624;0.000;0.000;2023-04-19T12:47:54;23.10;75.00
66710;DHT22;53624;0.000;0.000;2023-04-19T12:50:22;22.80;73.50
66710;DHT22;53624;0.000;0.000;2023-04-19T12:52:50;22.40;75.60
66710;DHT22;53624;0.000;0.000;2023-04-19T12:55:18;22.60;76.30
66710;DHT22;53624;0.000;0.000;2023-04-19T12:57:46;23.20;76.60
66710;DHT22;53624;0.000;0.000;2023-04-19T13:00:14;23.80;77.80
66710;DHT22;53624;0.000;0.000;2023-04-19T13:02:42;24.10;77.70
66710;DHT22;53624;0.000;0.000;2023-04-19T13:05:10;24.20;77.50
66710;DHT22;53624;0.000;0.000;2023-04-19T13:07:37;24.30;77.60
66710;DHT22;53624;0.000;0.000;2023-04-19T13:10:07;24.40;77.60
66710;DHT22;53624;0.000;0.000;2023-04-19T13:12:35;24.30;77.80
66710;DHT22;53624;0.000;0.000;2023-04-19T13:15:02;24.30;77.80
66710;DHT22;53624;0.000;0.000;2023-04-19T13:17:30;24.30;77.80
66710;DHT22;53624;0.000;0.000;2023-04-19T13:19:57;24.40;77.90
66710;DHT22;53624;0.000;0.000;2023-04-19T13:22:25;24.40;78.00
66710;DHT22;53624;0.000;0.000;2023-04-19T13:24:52;24.40;78.30
66710;DHT22;53624;0.000;0.000;2023-04-19T13:27:21;24.50;78.30
66710;DHT22;53624;0.000;0.000;2023-04-19T13:29:49;24.50;78.40
66710;DHT22;53624;0.000;0.000;2023-04-19T13:32:16;24.50;78.60
66710;DHT22;53624;0.000;0.000;2023-04-19T13:34:44;24.50;78.70
66710;DHT22;53624;0.000;0.000;2023-04-19T13:37:12;24.50;78.80
66710;DHT22;53624;0.000;0.000;2023-04-19T13:39:39;24.50;79.00
66710;DHT22;53624;0.000;0.000;2023-04-19T13:42:07;24.50;79.00
66710;DHT22;53624;0.000;0.000;2023-04-19T13:44:36;24.50;79.10
66710;DHT22;53624;0.000;0.000;2023-04-19T13:47:04;24.50;79.10
66710;DHT22;53624;0.000;0.000;2023-04-19T13:49:31;24.50;79.30
66710;DHT22;53624;0.000;0.000;2023-04-19T13:51:58;24.50;79.30
66710;DHT22;53624;0.000;0.000;2023-04-19T13:54:26;24.60;79.40
66710;DHT22;53624;0.000;0.000;2023-04-19T13:56:53;24.60;79.40
66710;DHT22;53624;0.000;0.000;2023-04-19T13:59:21;24.60;79.40
66710;DHT22;53624;0.000;0.000;2023-04-19T14:01:52;24.50;79.40
66710;DHT22;53624;0.000;0.000;2023-04-19T14:04:21;24.60;79.60
66710;DHT22;53624;0.000;0.000;2023-04-19T14:06:48;24.60;79.60
66710;DHT22;53624;0.000;0.000;2023-04-19T14:09:16;24.60;79.50
66710;DHT22;53624;0.000;0.000;2023-04-19T14:11:43;24.50;79.50
66710;DHT22;53624;0.000;0.000;2023-04-19T14:14:10;24.40;80.00
66710;DHT22;53624;0.000;0.000;2023-04-19T14:16:38;24.30;80.10
66710;DHT22;53624;0.000;0.000;2023-04-19T14:19:07;24.40;79.90
66710;DHT22;53624;0.000;0.000;2023-04-19T14:21:34;24.50;79.80
66710;DHT22;53624;0.000;0.000;2023-04-19T14:24:02;24.30;80.10
66710;DHT22;53624;0.000;0.000;2023-04-19T14:26:30;24.10;80.40
66710;DHT22;53624;0.000;0.000;2023-04-19T14:28:57;24.10;80.80
66710;DHT22;53624;0.000;0.000;2023-04-19T14:31:25;24.10;80.60
66710;DHT22;53624;0.000;0.000;2023-04-19T14:33:52;24.20;80.50
66710;DHT22;53624;0.000;0.000;2023-04-19T14:36:21;24.10;80.50
66710;DHT22;53624;0.000;0.000;2023-04-19T14:38:50;24.00;80.90
66710;DHT22;53624;0.000;0.000;2023-04-19T14:41:17;24.00;81.10
66710;DHT22;53624;0.000;0.000;2023-04-19T14:43:45;24.00;81.10
66710;DHT22;53624;0.000;0.000;2023-04-19T14:46:12;23.90;81.30
66710;DHT22;53624;0.000;0.000;2023-04-19T14:48:40;23.70;81.50
66710;DHT22;53624;0.000;0.000;2023-04-19T14:51:07;23.70;81.70
66710;DHT22;53624;0.000;0.000;2023-04-19T14:53:36;23.80;81.60
66710;DHT22;53624;0.000;0.000;2023-04-19T14:56:04;23.80;81.60
66710;DHT22;53624;0.000;0.000;2023-04-19T14:58:32;23.90;81.40
66710;DHT22;53624;0.000;0.000;2023-04-19T15:00:59;23.90;81.40
66710;DHT22;53624;0.000;0.000;2023-04-19T15:03:36;23.80;81.60
66710;DHT22;53624;0.000;0.000;2023-04-19T15:06:03;23.80;81.80
66710;DHT22;53624;0.000;0.000;2023-04-19T15:08:31;23.80;81.90
66710;DHT22;53624;0.000;0.000;2023-04-19T15:11:00;23.70;81.80
66710;DHT22;53624;0.000;0.000;2023-04-19T15:13:27;23.70;82.00
66710;DHT22;53624;0.000;0.000;2023-04-19T15:15:55;23.60;82.30
66710;DHT22;53624;0.000;0.000;2023-04-19T15:18:23;23.60;82.30
66710;DHT22;53624;0.000;0.000;2023-04-19T15:20:50;23.60;82.40
66710;DHT22;53624;0.000;0.000;2023-04-19T15:23:19;23.60;82.40
66710;DHT22;53624;0.000;0.000;2023-04-19T15:25:47;23.60;82.50
66710;DHT22;53624;0.000;0.000;2023-04-19T15:28:16;23.60;82.50
66710;DHT22;53624;0.000;0.000;2023-04-19T15:30:43;23.60;82.60
66710;DHT22;53624;0.000;0.000;2023-04-19T15:33:11;23.50;82.70
66710;DHT22;53624;0.000;0.000;2023-04-19T15:35:38;23.50;82.80
66710;DHT22;53624;0.000;0.000;2023-04-19T15:38:06;23.40;83.00
66710;DHT22;53624;0.000;0.000;2023-04-19T15:40:34;23.40;83.20
66710;DHT22;53624;0.000;0.000;2023-04-19T15:43:03;23.30;83.20
66710;DHT22;53624;0.000;0.000;2023-04-19T15:45:32;23.20;83.30
66710;DHT22;53624;0.000;0.000;2023-04-19T15:48:00;23.20;83.50
66710;DHT22;53624;0.000;0.000;2023-04-19T15:50:27;23.10;83.70
66710;DHT22;53624;0.000;0.000;2023-04-19T15:52:55;23.00;83.80
66710;DHT22;53624;0.000;0.000;2023-04-19T15:55:23;22.90;84.00
66710;DHT22;53624;0.000;0.000;2023-04-19T15:57:50;22.90;84.10
66710;DHT22;53624;0.000;0.000;2023-04-19T16:00:18;22.80;84.10
66710;DHT22;53624;0.000;0.000;2023-04-19T16:02:47;22.80;84.30
66710;DHT22;53624;0.000;0.000;2023-04-19T16:05:15;22.70;84.40